createdAt,value
2022-10-06T00:00:49.900Z,65.30
2022-10-06T00:03:32.886Z,61.71
2022-10-06T00:06:00.944Z,57.56
2022-10-06T00:08:28.068Z,56.42
2022-10-06T00:10:55.857Z,57.93
2022-10-06T00:13:23.983Z,59.17
2022-10-06T00:15:50.905Z,60.04
2022-10-06T00:18:17.465Z,60.78
2022-10-06T00:20:44.015Z,61.55
2022-10-06T00:23:11.402Z,66.05
2022-10-06T00:25:37.848Z,65.06
2022-10-06T00:28:04.416Z,62.08
2022-10-06T00:30:31.039Z,60.07
2022-10-06T00:33:04.004Z,56.79
2022-10-06T00:35:33.872Z,56.14
2022-10-06T00:38:02.312Z,57.53
2022-10-06T00:40:31.700Z,58.65
2022-10-06T00:43:05.691Z,59.57
2022-10-06T00:45:40.497Z,60.43
2022-10-06T00:48:17.692Z,61.53
2022-10-06T00:50:46.083Z,65.72
2022-10-06T00:53:16.153Z,65.13
2022-10-06T00:55:43.603Z,62.04
2022-10-06T00:58:10.628Z,59.85
2022-10-06T01:00:39.435Z,56.89
2022-10-06T01:03:10.755Z,56.84
2022-10-06T01:05:43.612Z,57.78
2022-10-06T01:08:10.252Z,59.00
2022-10-06T01:10:37.428Z,59.92
2022-10-06T01:13:06.239Z,61.05
2022-10-06T01:15:36.661Z,64.97
2022-10-06T01:18:17.259Z,65.19
2022-10-06T01:21:07.083Z,61.90
2022-10-06T01:23:35.832Z,57.66
2022-10-06T01:26:07.116Z,57.40
2022-10-06T01:28:34.388Z,58.55
2022-10-06T01:31:04.001Z,59.61
2022-10-06T01:33:35.432Z,60.48
2022-10-06T01:36:04.632Z,61.43
2022-10-06T01:38:31.881Z,65.69
2022-10-06T01:41:03.522Z,64.96
2022-10-06T01:43:30.539Z,61.50
2022-10-06T01:45:59.012Z,58.20
2022-10-06T01:48:26.989Z,57.55
2022-10-06T01:50:57.478Z,58.62
2022-10-06T01:53:23.992Z,59.91
2022-10-06T01:55:51.544Z,60.78
2022-10-06T01:58:25.491Z,61.40
2022-10-06T02:00:53.845Z,64.86
2022-10-06T02:03:20.366Z,65.04
2022-10-06T02:05:47.717Z,61.80
2022-10-06T02:08:14.388Z,57.61
2022-10-06T02:10:42.296Z,56.78
2022-10-06T02:13:17.156Z,57.71
2022-10-06T02:15:44.020Z,59.38
2022-10-06T02:18:10.621Z,60.21
2022-10-06T02:20:38.078Z,61.29
2022-10-06T02:23:05.031Z,65.73
2022-10-06T02:25:31.564Z,64.58
2022-10-06T02:28:00.009Z,61.32
2022-10-06T02:30:27.189Z,57.45
2022-10-06T02:32:57.105Z,56.23
2022-10-06T02:35:26.290Z,57.44
2022-10-06T02:37:55.148Z,58.83
2022-10-06T02:40:24.968Z,59.62
2022-10-06T02:42:51.439Z,60.36
2022-10-06T02:45:20.795Z,60.88
2022-10-06T02:47:49.109Z,61.61
2022-10-06T02:50:18.528Z,65.28
2022-10-06T02:52:45.245Z,65.33
2022-10-06T02:55:13.486Z,62.09
2022-10-06T02:57:39.956Z,59.97
2022-10-06T03:00:10.342Z,57.03
2022-10-06T03:02:40.006Z,56.56
2022-10-06T03:05:07.552Z,57.68
2022-10-06T03:07:34.602Z,58.85
2022-10-06T03:10:03.086Z,60.54
2022-10-06T03:12:32.454Z,61.29
2022-10-06T03:14:59.615Z,64.98
2022-10-06T03:17:28.460Z,65.35
2022-10-06T03:19:59.445Z,60.44
2022-10-06T03:22:36.058Z,55.86
2022-10-06T03:25:03.509Z,55.70
2022-10-06T03:27:30.009Z,57.75
2022-10-06T03:29:59.684Z,59.13
2022-10-06T03:32:27.496Z,60.36
2022-10-06T03:34:54.532Z,60.85
2022-10-06T03:37:22.287Z,64.25
2022-10-06T03:39:50.279Z,64.64
2022-10-06T03:42:19.550Z,62.90
2022-10-06T03:44:47.028Z,58.35
2022-10-06T03:47:17.202Z,56.84
2022-10-06T03:49:46.759Z,57.91
2022-10-06T03:52:14.484Z,59.07
2022-10-06T03:54:41.258Z,60.05
2022-10-06T03:57:08.689Z,61.05
2022-10-06T03:59:36.326Z,64.43
2022-10-06T04:02:04.686Z,64.95
2022-10-06T04:04:34.861Z,60.65
2022-10-06T04:07:06.155Z,56.44
2022-10-06T04:09:32.749Z,55.56
2022-10-06T04:12:01.213Z,56.55
2022-10-06T04:14:29.166Z,58.49
2022-10-06T04:16:57.070Z,59.63
2022-10-06T04:19:35.216Z,60.61
2022-10-06T04:22:02.352Z,61.68
2022-10-06T04:24:32.180Z,66.93
2022-10-06T04:27:19.286Z,65.12
2022-10-06T04:30:03.715Z,59.97
2022-10-06T04:32:33.213Z,56.27
2022-10-06T04:35:02.823Z,56.26
2022-10-06T04:37:30.545Z,57.71
2022-10-06T04:39:58.709Z,59.55
2022-10-06T04:42:25.984Z,60.75
2022-10-06T04:44:52.695Z,65.18
2022-10-06T04:47:20.411Z,64.84
2022-10-06T04:49:49.243Z,60.73
2022-10-06T04:52:16.497Z,56.61
2022-10-06T04:54:42.972Z,56.15
2022-10-06T04:57:09.536Z,57.66
2022-10-06T04:59:56.283Z,58.44
2022-10-06T05:02:25.344Z,59.35
2022-10-06T05:04:56.481Z,60.66
2022-10-06T05:07:25.046Z,64.72
2022-10-06T05:09:53.008Z,64.81
2022-10-06T05:12:19.490Z,60.56
2022-10-06T05:14:46.112Z,56.50
2022-10-06T05:17:12.812Z,56.73
2022-10-06T05:19:39.355Z,58.21
2022-10-06T05:22:06.984Z,58.78
2022-10-06T05:24:35.253Z,60.82
2022-10-06T05:27:03.814Z,61.26
2022-10-06T05:29:31.678Z,65.84
2022-10-06T05:31:58.292Z,66.13
2022-10-06T05:34:25.674Z,61.95
2022-10-06T05:36:54.178Z,57.69
2022-10-06T05:39:21.153Z,56.99
2022-10-06T05:41:57.223Z,58.18
2022-10-06T05:44:25.082Z,59.35
2022-10-06T05:46:51.680Z,60.56
2022-10-06T05:49:20.831Z,61.49
2022-10-06T05:51:52.808Z,66.11
2022-10-06T05:54:24.321Z,66.38
2022-10-06T05:56:50.766Z,60.58
2022-10-06T05:59:18.441Z,56.05
2022-10-06T06:01:45.221Z,55.77
2022-10-06T06:04:18.515Z,57.10
2022-10-06T06:06:49.903Z,58.62
2022-10-06T06:09:28.196Z,59.73
2022-10-06T06:11:59.679Z,61.12
2022-10-06T06:14:51.719Z,65.59
2022-10-06T06:17:23.007Z,64.84
2022-10-06T06:19:50.626Z,60.84
2022-10-06T06:22:18.002Z,57.13
2022-10-06T06:24:49.212Z,56.90
2022-10-06T06:27:16.869Z,57.70
2022-10-06T06:29:45.078Z,59.12
2022-10-06T06:32:11.718Z,59.84
2022-10-06T06:34:38.475Z,60.38
2022-10-06T06:37:14.866Z,60.97
2022-10-06T06:39:45.108Z,65.10
2022-10-06T06:42:14.583Z,64.72
2022-10-06T06:44:56.403Z,59.92
2022-10-06T06:47:38.400Z,55.46
2022-10-06T06:50:09.541Z,54.23
2022-10-06T06:52:36.888Z,55.70
2022-10-06T06:55:05.213Z,57.18
2022-10-06T06:57:34.811Z,57.75
2022-10-06T07:00:08.457Z,58.75
2022-10-06T07:02:38.987Z,59.44
2022-10-06T07:05:06.470Z,60.48
2022-10-06T07:07:36.303Z,65.50
2022-10-06T07:10:03.515Z,65.70
2022-10-06T07:12:33.596Z,63.36
2022-10-06T07:15:19.736Z,61.05
2022-10-06T07:18:11.137Z,59.67
2022-10-06T07:20:57.250Z,56.56
2022-10-06T07:23:44.962Z,57.47
2022-10-06T07:26:15.928Z,59.28
2022-10-06T07:28:43.067Z,60.65
2022-10-06T07:31:11.124Z,64.53
2022-10-06T07:33:40.162Z,63.65
2022-10-06T07:36:09.571Z,59.30
2022-10-06T07:38:42.206Z,56.10
2022-10-06T07:41:23.860Z,56.24
2022-10-06T07:43:57.069Z,56.63
2022-10-06T07:46:26.764Z,58.59
2022-10-06T07:48:59.920Z,59.42
2022-10-06T07:51:28.642Z,59.46
2022-10-06T07:53:57.648Z,59.93
2022-10-06T07:56:30.373Z,60.97
2022-10-06T07:58:58.599Z,61.14
2022-10-06T08:01:30.363Z,65.01
2022-10-06T08:03:56.950Z,65.15
2022-10-06T08:06:24.382Z,61.88
2022-10-06T08:08:55.950Z,56.94
2022-10-06T08:11:22.666Z,55.91
2022-10-06T08:13:51.532Z,57.93
2022-10-06T08:16:21.135Z,58.49
2022-10-06T08:18:52.939Z,59.65
2022-10-06T08:21:28.264Z,60.40
2022-10-06T08:24:10.144Z,62.11
2022-10-06T08:26:46.127Z,65.05
2022-10-06T08:29:12.705Z,61.31
2022-10-06T08:31:42.227Z,58.21
2022-10-06T08:34:12.190Z,57.07
2022-10-06T08:36:39.567Z,58.04
2022-10-06T08:39:07.305Z,59.86
2022-10-06T08:41:45.435Z,60.69
2022-10-06T08:44:25.223Z,61.49
2022-10-06T08:46:53.775Z,63.13
2022-10-06T08:49:25.088Z,61.08
2022-10-06T08:52:17.795Z,58.72
2022-10-06T08:55:21.060Z,57.43
2022-10-06T08:57:55.733Z,58.93
2022-10-06T09:00:23.761Z,58.88
2022-10-06T09:02:55.453Z,60.37
2022-10-06T09:05:27.613Z,60.73
2022-10-06T09:08:12.401Z,61.31
2022-10-06T09:11:12.359Z,61.76
2022-10-06T09:13:43.736Z,63.95
2022-10-06T09:16:16.028Z,61.41
2022-10-06T09:19:15.000Z,58.59
2022-10-06T09:21:51.557Z,57.35
2022-10-06T09:24:46.238Z,57.70
2022-10-06T09:27:22.510Z,59.03
2022-10-06T09:29:51.343Z,60.31
2022-10-06T09:32:22.053Z,60.35
2022-10-06T09:34:59.465Z,60.71
2022-10-06T09:37:27.584Z,61.12
2022-10-06T09:39:54.520Z,60.80
2022-10-06T09:42:32.434Z,61.84
2022-10-06T09:45:25.838Z,61.86
2022-10-06T09:47:52.639Z,62.85
2022-10-06T09:50:26.890Z,59.74
2022-10-06T09:53:00.197Z,56.16
2022-10-06T09:55:54.837Z,56.68
2022-10-06T09:58:34.084Z,57.52
2022-10-06T10:01:04.263Z,58.24
2022-10-06T10:06:38.871Z,59.01
2022-10-06T10:09:22.037Z,59.40
2022-10-06T10:12:25.933Z,59.24
2022-10-06T10:15:30.675Z,58.56
2022-10-06T10:18:02.479Z,58.17
2022-10-06T10:20:29.022Z,58.54
2022-10-06T10:23:44.064Z,57.78
2022-10-06T10:26:18.687Z,58.01
2022-10-06T10:29:07.250Z,57.64
2022-10-06T10:31:55.306Z,58.03
2022-10-06T10:34:31.528Z,57.67
2022-10-06T10:37:39.364Z,57.33
2022-10-06T10:40:37.140Z,57.24
2022-10-06T10:43:20.964Z,55.89
2022-10-06T10:46:17.128Z,56.00
2022-10-06T10:48:56.374Z,56.38
2022-10-06T10:51:34.156Z,55.88
2022-10-06T10:54:08.530Z,54.85
2022-10-06T10:56:40.322Z,53.76
2022-10-06T10:59:35.961Z,53.82
2022-10-06T11:02:24.898Z,53.83
2022-10-06T11:05:17.561Z,53.81
2022-10-06T11:08:06.980Z,54.00
2022-10-06T11:10:45.745Z,54.07
2022-10-06T11:13:36.195Z,53.67
2022-10-06T11:16:35.960Z,53.33
2022-10-06T11:19:16.109Z,53.24
2022-10-06T11:22:00.959Z,53.61
2022-10-06T11:24:44.958Z,53.54
2022-10-06T11:27:42.423Z,53.86
2022-10-06T11:30:24.121Z,53.66
2022-10-06T11:33:13.028Z,53.85
2022-10-06T11:35:49.006Z,53.98
2022-10-06T11:38:33.286Z,53.15
2022-10-06T11:41:32.095Z,53.08
2022-10-06T11:47:35.931Z,53.55
2022-10-06T11:50:37.016Z,53.35
2022-10-06T11:53:53.998Z,52.99
2022-10-06T11:56:34.455Z,52.78
2022-10-06T11:59:12.725Z,51.35
2022-10-06T12:01:43.621Z,51.72
2022-10-06T12:04:10.277Z,51.14
2022-10-06T12:06:45.518Z,51.54
2022-10-06T12:09:29.530Z,50.75
2022-10-06T12:12:20.798Z,50.21
2022-10-06T12:18:18.100Z,49.74
2022-10-06T12:20:49.541Z,49.60
2022-10-06T12:23:38.379Z,49.47
2022-10-06T12:26:43.391Z,49.72
2022-10-06T12:29:20.355Z,50.14
2022-10-06T12:32:06.957Z,50.60
2022-10-06T12:34:55.753Z,50.99
2022-10-06T12:37:36.103Z,50.74
2022-10-06T12:40:40.351Z,50.12
2022-10-06T12:43:11.715Z,48.68
2022-10-06T12:45:45.918Z,48.94
2022-10-06T12:48:38.512Z,48.79
2022-10-06T12:51:18.317Z,46.85
2022-10-06T12:53:50.630Z,47.05
2022-10-06T12:56:34.328Z,46.71
2022-10-06T12:59:24.349Z,45.91
2022-10-06T13:01:59.261Z,45.58
2022-10-06T13:04:43.558Z,45.67
2022-10-06T13:07:13.850Z,46.44
2022-10-06T13:09:40.779Z,45.86
2022-10-06T13:12:31.073Z,45.04
2022-10-06T13:15:17.475Z,44.39
2022-10-06T13:18:15.349Z,43.90
2022-10-06T13:20:55.032Z,42.72
2022-10-06T13:23:27.939Z,42.87
2022-10-06T13:26:05.249Z,42.37
2022-10-06T13:28:33.702Z,41.55
2022-10-06T13:31:05.797Z,41.02
2022-10-06T13:33:40.448Z,40.31
2022-10-06T13:36:08.593Z,39.18
2022-10-06T13:38:36.207Z,38.44
2022-10-06T13:41:12.992Z,38.05
2022-10-06T13:43:44.903Z,37.52
2022-10-06T13:46:15.424Z,36.73
2022-10-06T13:48:59.360Z,36.57
2022-10-06T13:51:31.280Z,36.03
2022-10-06T13:54:04.049Z,34.90
2022-10-06T13:56:38.259Z,34.97
2022-10-06T13:59:30.360Z,33.93
2022-10-06T14:02:17.334Z,33.66
2022-10-06T14:05:04.452Z,33.51
2022-10-06T14:07:31.918Z,32.33
2022-10-06T14:09:58.367Z,31.74
2022-10-06T14:12:26.246Z,31.36
2022-10-06T14:14:56.068Z,30.80
2022-10-06T14:17:25.482Z,30.59
2022-10-06T14:19:51.999Z,30.44
2022-10-06T14:22:31.746Z,29.51
2022-10-06T14:24:59.518Z,28.76
2022-10-06T14:27:26.306Z,28.31
2022-10-06T14:29:56.536Z,28.02
2022-10-06T14:32:23.294Z,27.61
2022-10-06T14:34:50.812Z,27.82
2022-10-06T14:37:18.014Z,27.49
2022-10-06T14:39:45.495Z,26.53
2022-10-06T14:42:14.444Z,26.97
2022-10-06T14:44:42.946Z,27.36
2022-10-06T14:47:12.097Z,26.85
2022-10-06T14:49:38.795Z,26.47
2022-10-06T14:52:09.922Z,26.09
2022-10-06T14:54:38.227Z,26.26
2022-10-06T14:57:04.845Z,25.43
2022-10-06T14:59:33.238Z,25.03
2022-10-06T15:02:04.301Z,25.06
2022-10-06T15:04:31.240Z,23.83
2022-10-06T15:07:18.537Z,23.38
2022-10-06T15:09:47.687Z,23.60
2022-10-06T15:12:16.798Z,23.49
2022-10-06T15:14:44.486Z,23.75
2022-10-06T15:17:11.220Z,23.83
2022-10-06T15:19:40.184Z,23.59
2022-10-06T15:22:08.440Z,23.39
2022-10-06T15:24:34.942Z,23.44
2022-10-06T15:27:25.011Z,23.37
2022-10-06T15:29:52.335Z,23.81
2022-10-06T15:32:18.830Z,23.72
2022-10-06T15:34:45.367Z,23.10
2022-10-06T15:37:11.883Z,22.88
2022-10-06T15:39:38.381Z,23.87
2022-10-06T15:42:05.454Z,25.18
2022-10-06T15:44:33.879Z,26.80
2022-10-06T15:47:01.175Z,28.82
2022-10-06T15:49:37.563Z,30.07
2022-10-06T15:52:13.049Z,32.36
2022-10-06T15:54:41.865Z,32.93
2022-10-06T15:57:19.434Z,34.32
2022-10-06T15:59:49.583Z,36.62
2022-10-06T16:02:17.470Z,37.51
2022-10-06T16:05:01.930Z,39.26
2022-10-06T16:07:42.471Z,41.24
2022-10-06T16:10:11.262Z,42.82
2022-10-06T16:12:45.473Z,43.98
2022-10-06T16:15:12.213Z,44.85
2022-10-06T16:17:42.736Z,45.86
2022-10-06T16:20:10.797Z,47.05
2022-10-06T16:22:37.699Z,48.11
2022-10-06T16:25:05.667Z,48.96
2022-10-06T16:27:34.901Z,49.87
2022-10-06T16:30:01.555Z,50.81
2022-10-06T16:32:31.418Z,51.69
2022-10-06T16:34:58.067Z,52.01
2022-10-06T16:37:25.587Z,52.69
2022-10-06T16:39:52.304Z,53.32
2022-10-06T16:42:19.136Z,53.78
2022-10-06T16:44:45.678Z,54.32
2022-10-06T16:47:15.394Z,54.83
2022-10-06T16:49:41.893Z,55.42
2022-10-06T16:52:09.885Z,55.95
2022-10-06T16:54:36.378Z,56.42
2022-10-06T16:57:07.015Z,56.94
2022-10-06T16:59:33.745Z,57.55
2022-10-06T17:02:03.064Z,57.86
2022-10-06T17:04:31.355Z,58.58
2022-10-06T17:07:02.667Z,59.30
2022-10-06T17:09:33.670Z,60.12
2022-10-06T17:12:03.620Z,60.22
2022-10-06T17:14:31.605Z,60.89
2022-10-06T17:17:01.522Z,60.86
2022-10-06T17:19:29.361Z,61.07
2022-10-06T17:21:59.475Z,60.95
2022-10-06T17:24:30.566Z,61.18
2022-10-06T17:26:58.461Z,61.37
2022-10-06T17:29:30.950Z,61.52
2022-10-06T17:31:59.138Z,62.10
2022-10-06T17:34:31.720Z,65.83
2022-10-06T17:37:04.528Z,65.45
2022-10-06T17:40:44.793Z,56.88
2022-10-06T17:43:14.913Z,55.37
2022-10-06T17:45:42.794Z,56.02
2022-10-06T17:48:12.253Z,56.78
2022-10-06T17:50:40.055Z,57.43
2022-10-06T17:53:07.909Z,58.62
2022-10-06T17:55:36.704Z,59.09
2022-10-06T17:58:08.059Z,59.73
2022-10-06T18:01:46.445Z,60.15
2022-10-06T18:04:16.491Z,60.20
2022-10-06T18:06:47.677Z,61.04
2022-10-06T18:09:19.401Z,61.60
2022-10-06T18:11:55.880Z,65.24
2022-10-06T18:14:33.972Z,64.73
2022-10-06T18:17:05.928Z,60.71
2022-10-06T18:19:38.403Z,56.20
2022-10-06T18:22:11.679Z,55.45
2022-10-06T18:24:41.615Z,56.17
2022-10-06T18:27:14.089Z,57.01
2022-10-06T18:29:43.790Z,57.91
2022-10-06T18:38:05.173Z,60.40
2022-10-06T18:40:32.951Z,60.71
2022-10-06T18:43:03.069Z,61.18
2022-10-06T18:45:53.730Z,61.70
2022-10-06T18:48:40.230Z,66.28
2022-10-06T18:51:08.209Z,64.81
2022-10-06T18:53:39.260Z,57.70
2022-10-06T18:56:08.249Z,55.31
2022-10-06T18:58:44.324Z,56.12
2022-10-06T19:01:13.550Z,56.91
2022-10-06T19:03:41.663Z,57.69
2022-10-06T19:06:09.604Z,58.53
2022-10-06T19:08:37.678Z,59.12
2022-10-06T19:11:38.876Z,59.79
2022-10-06T19:14:07.175Z,59.91
2022-10-06T19:16:35.203Z,60.81
2022-10-06T19:19:06.501Z,61.14
2022-10-06T19:21:36.929Z,61.65
2022-10-06T19:24:05.585Z,66.04
2022-10-06T19:26:33.906Z,65.23
2022-10-06T19:29:05.026Z,60.07
2022-10-06T19:31:32.846Z,55.62
2022-10-06T19:34:04.164Z,54.77
2022-10-06T19:36:32.512Z,55.75
2022-10-06T19:39:04.171Z,57.17
2022-10-06T19:41:51.758Z,58.69
2022-10-06T19:44:19.559Z,59.48
2022-10-06T19:46:47.645Z,60.79
2022-10-06T19:49:17.175Z,61.68
2022-10-06T19:51:45.376Z,61.42
2022-10-06T19:54:13.483Z,61.13
2022-10-06T19:56:41.707Z,65.70
2022-10-06T19:59:14.291Z,66.44
2022-10-06T20:01:42.772Z,60.40
2022-10-06T20:04:12.993Z,54.24
2022-10-06T20:06:42.263Z,53.67
2022-10-06T20:09:14.993Z,55.46
2022-10-06T20:11:45.196Z,56.71
2022-10-06T20:14:23.501Z,58.30
2022-10-06T20:16:54.470Z,58.25
2022-10-06T20:19:25.623Z,59.10
2022-10-06T20:21:53.595Z,60.08
2022-10-06T20:24:24.497Z,60.85
2022-10-06T20:26:53.772Z,61.15
2022-10-06T20:29:25.240Z,65.15
2022-10-06T20:31:55.278Z,65.62
2022-10-06T20:34:32.482Z,61.28
2022-10-06T20:37:04.904Z,57.13
2022-10-06T20:39:55.208Z,55.86
2022-10-06T20:42:23.260Z,56.70
2022-10-06T20:44:51.131Z,57.61
2022-10-06T20:47:19.196Z,58.31
2022-10-06T20:49:47.218Z,58.77
2022-10-06T20:52:15.178Z,59.30
2022-10-06T20:54:43.367Z,59.95
2022-10-06T20:57:13.018Z,60.13
2022-10-06T20:59:45.268Z,60.64
2022-10-06T21:02:16.606Z,61.39
2022-10-06T21:04:45.246Z,65.41
2022-10-06T21:07:13.045Z,65.37
2022-10-06T21:09:40.795Z,60.20
2022-10-06T21:12:09.219Z,54.76
2022-10-06T21:14:37.844Z,53.67
2022-10-06T21:17:08.125Z,54.39
2022-10-06T21:19:37.675Z,55.59
2022-10-06T21:22:06.099Z,57.14
2022-10-06T21:24:36.585Z,58.13
2022-10-06T21:27:04.515Z,58.39
2022-10-06T21:29:32.335Z,58.91
2022-10-06T21:32:00.417Z,59.66
2022-10-06T21:34:28.167Z,60.38
2022-10-06T21:36:56.153Z,60.96
2022-10-06T21:39:23.925Z,61.44
2022-10-06T21:41:51.688Z,61.95
2022-10-06T21:44:19.677Z,66.37
2022-10-06T21:46:49.443Z,67.16
2022-10-06T21:49:19.725Z,60.85
2022-10-06T21:51:49.868Z,55.02
2022-10-06T21:54:18.555Z,53.90
2022-10-06T21:56:47.195Z,55.00
2022-10-06T21:59:15.349Z,55.60
2022-10-06T22:01:45.359Z,56.94
2022-10-06T22:04:14.487Z,58.28
2022-10-06T22:06:44.619Z,59.29
2022-10-06T22:09:15.171Z,60.81
2022-10-06T22:11:44.146Z,60.55
2022-10-06T22:14:14.115Z,61.07
2022-10-06T22:16:42.828Z,61.81
2022-10-06T22:19:18.464Z,66.41
2022-10-06T22:21:48.405Z,64.94
2022-10-06T22:24:20.691Z,61.46
2022-10-06T22:26:49.395Z,56.28
2022-10-06T22:29:19.010Z,54.56
2022-10-06T22:31:49.103Z,56.10
2022-10-06T22:34:19.713Z,57.02
2022-10-06T22:36:48.406Z,57.67
2022-10-06T22:39:16.674Z,58.25
2022-10-06T22:41:45.344Z,58.99
2022-10-06T22:44:13.121Z,59.90
2022-10-06T22:46:41.507Z,60.42
2022-10-06T22:49:09.596Z,61.17
2022-10-06T22:51:39.612Z,61.12
2022-10-06T22:54:10.056Z,61.31
2022-10-06T22:56:39.451Z,61.54
2022-10-06T22:59:07.155Z,65.82
2022-10-06T23:01:35.070Z,65.47
2022-10-06T23:04:02.930Z,60.58
2022-10-06T23:06:31.570Z,54.92
2022-10-06T23:08:59.604Z,53.79
2022-10-06T23:11:27.960Z,54.78
2022-10-06T23:13:56.549Z,55.66
2022-10-06T23:16:24.968Z,56.24
2022-10-06T23:18:52.835Z,56.92
2022-10-06T23:21:23.914Z,58.06
2022-10-06T23:23:54.152Z,59.49
2022-10-06T23:26:23.234Z,59.87
2022-10-06T23:28:56.341Z,60.42
2022-10-06T23:31:25.216Z,60.94
2022-10-06T23:33:54.184Z,61.09
2022-10-06T23:36:22.164Z,61.73
2022-10-06T23:38:50.148Z,65.17
2022-10-06T23:41:18.852Z,66.12
2022-10-06T23:43:46.593Z,61.54
2022-10-06T23:46:14.894Z,55.64
2022-10-06T23:48:44.184Z,53.81
2022-10-06T23:51:15.351Z,54.56
2022-10-06T23:53:46.013Z,55.63
2022-10-06T23:56:13.839Z,56.67
2022-10-06T23:58:42.945Z,57.07
